createdAt,value
2018-01-27T00:00:37.484Z,1006.84
2018-01-27T00:01:47.527Z,1006.83
2018-01-27T00:02:57.338Z,1006.8
2018-01-27T00:04:07.418Z,1006.86
2018-01-27T00:05:17.469Z,1006.83
2018-01-27T00:06:27.274Z,1006.8
2018-01-27T00:07:37.346Z,1006.87
2018-01-27T00:08:47.417Z,1006.85
2018-01-27T00:09:57.487Z,1006.89
2018-01-27T00:11:07.571Z,1006.87
2018-01-27T00:12:17.366Z,1006.87
2018-01-27T00:13:27.432Z,1006.89
2018-01-27T00:14:37.568Z,1006.87
2018-01-27T00:15:47.598Z,1006.82
2018-01-27T00:16:59.106Z,1006.86
2018-01-27T00:18:10.704Z,1006.9
2018-01-27T00:19:20.851Z,1006.88
2018-01-27T00:20:30.947Z,1006.88
2018-01-27T00:21:41.019Z,1006.92
2018-01-27T00:22:50.802Z,1006.94
2018-01-27T00:24:00.869Z,1006.96
2018-01-27T00:25:10.661Z,1006.96
2018-01-27T00:26:20.450Z,1006.92
2018-01-27T00:27:30.496Z,1006.92
2018-01-27T00:28:40.539Z,1006.89
2018-01-27T00:29:50.337Z,1006.91
2018-01-27T00:31:00.396Z,1006.91
2018-01-27T00:32:10.455Z,1006.97
2018-01-27T00:33:20.515Z,1007
2018-01-27T00:34:30.579Z,1007
2018-01-27T00:35:40.388Z,1007.04
2018-01-27T00:36:50.433Z,1007.02
2018-01-27T00:38:00.480Z,1007.05
2018-01-27T00:39:10.281Z,1007.01
2018-01-27T00:40:20.342Z,1007.06
2018-01-27T00:41:30.400Z,1007.06
2018-01-27T00:42:40.452Z,1007.05
2018-01-27T00:43:50.537Z,1007.11
2018-01-27T00:45:00.599Z,1007.09
2018-01-27T00:46:10.696Z,1007.08
2018-01-27T00:47:20.747Z,1007.13
2018-01-27T00:48:30.817Z,1007.11
2018-01-27T00:49:40.915Z,1007.12
2018-01-27T00:50:50.956Z,1007.18
2018-01-27T00:52:00.748Z,1007.18
2018-01-27T00:53:10.824Z,1007.21
2018-01-27T00:54:20.879Z,1007.23
2018-01-27T00:55:30.959Z,1007.22
2018-01-27T00:56:40.996Z,1007.18
2018-01-27T00:57:50.788Z,1007.24
2018-01-27T00:59:00.578Z,1007.21
2018-01-27T01:00:10.629Z,1007.25
2018-01-27T01:01:20.674Z,1007.26
2018-01-27T01:02:30.725Z,1007.22
2018-01-27T01:03:42.084Z,1007.25
2018-01-27T01:04:52.137Z,1007.27
2018-01-27T01:06:01.923Z,1007.24
2018-01-27T01:07:11.772Z,1007.23
2018-01-27T01:08:21.832Z,1007.26
2018-01-27T01:09:33.226Z,1007.22
2018-01-27T01:10:43.285Z,1007.2
2018-01-27T01:11:53.358Z,1007.22
2018-01-27T01:13:04.053Z,1007.13
2018-01-27T01:14:14.393Z,1007.2
2018-01-27T01:15:24.173Z,1007.21
2018-01-27T01:16:34.454Z,1007.23
2018-01-27T01:17:44.008Z,1007.24
2018-01-27T01:18:54.191Z,1007.21
2018-01-27T01:20:04.280Z,1007.16
2018-01-27T01:21:14.059Z,1007.23
2018-01-27T01:22:24.126Z,1007.18
2018-01-27T01:23:33.986Z,1007.24
2018-01-27T01:24:44.073Z,1007.25
2018-01-27T01:25:54.131Z,1007.24
2018-01-27T01:27:03.921Z,1007.23
2018-01-27T01:28:13.961Z,1007.26
2018-01-27T01:29:24.016Z,1007.26
2018-01-27T01:30:34.092Z,1007.29
2018-01-27T01:31:43.888Z,1007.35
2018-01-27T01:32:53.672Z,1007.39
2018-01-27T01:34:03.709Z,1007.37
2018-01-27T01:35:13.761Z,1007.38
2018-01-27T01:36:23.795Z,1007.33
2018-01-27T01:37:33.835Z,1007.34
2018-01-27T01:38:43.889Z,1007.36
2018-01-27T01:39:53.936Z,1007.34
2018-01-27T01:41:03.984Z,1007.32
2018-01-27T01:42:13.845Z,1007.36
2018-01-27T01:43:23.888Z,1007.38
2018-01-27T01:44:33.698Z,1007.43
2018-01-27T01:45:43.763Z,1007.41
2018-01-27T01:46:53.818Z,1007.41
2018-01-27T01:48:03.618Z,1007.38
2018-01-27T01:49:13.667Z,1007.33
2018-01-27T01:50:23.708Z,1007.33
2018-01-27T01:51:33.504Z,1007.3
2018-01-27T01:52:43.284Z,1007.33
2018-01-27T01:53:53.081Z,1007.34
2018-01-27T01:55:02.866Z,1007.36
2018-01-27T01:56:12.923Z,1007.37
2018-01-27T01:57:22.965Z,1007.39
2018-01-27T01:58:33.120Z,1007.37
2018-01-27T01:59:43.157Z,1007.34
2018-01-27T02:00:53.213Z,1007.37
2018-01-27T02:02:03.270Z,1007.31
2018-01-27T02:03:13.046Z,1007.33
2018-01-27T02:04:23.099Z,1007.32
2018-01-27T02:05:32.882Z,1007.33
2018-01-27T02:06:42.929Z,1007.31
2018-01-27T02:07:52.971Z,1007.38
2018-01-27T02:09:03.030Z,1007.37
2018-01-27T02:10:13.092Z,1007.33
2018-01-27T02:11:22.870Z,1007.34
2018-01-27T02:12:32.912Z,1007.34
2018-01-27T02:13:42.682Z,1007.31
2018-01-27T02:14:52.754Z,1007.39
2018-01-27T02:16:02.554Z,1007.41
2018-01-27T02:17:12.079Z,1007.4
2018-01-27T02:18:22.105Z,1007.38
2018-01-27T02:19:32.168Z,1007.42
2018-01-27T02:20:42.217Z,1007.44
2018-01-27T02:21:52.279Z,1007.49
2018-01-27T02:23:01.814Z,1007.52
2018-01-27T02:24:11.873Z,1007.53
2018-01-27T02:25:23.169Z,1007.52
2018-01-27T02:26:34.374Z,1007.53
2018-01-27T02:27:44.428Z,1007.53
2018-01-27T02:28:54.488Z,1007.53
2018-01-27T02:30:04.534Z,1007.55
2018-01-27T02:31:14.572Z,1007.55
2018-01-27T02:32:24.651Z,1007.51
2018-01-27T02:33:34.709Z,1007.51
2018-01-27T02:34:44.499Z,1007.52
2018-01-27T02:35:54.553Z,1007.53
2018-01-27T02:37:04.604Z,1007.6
2018-01-27T02:38:14.650Z,1007.57
2018-01-27T02:39:24.437Z,1007.59
2018-01-27T02:40:34.228Z,1007.6
2018-01-27T02:41:44.293Z,1007.66
2018-01-27T02:42:55.145Z,1007.69
2018-01-27T02:44:04.927Z,1007.71
2018-01-27T02:45:14.711Z,1007.7
2018-01-27T02:46:24.758Z,1007.76
2018-01-27T02:47:34.814Z,1007.75
2018-01-27T02:48:44.862Z,1007.75
2018-01-27T02:49:54.916Z,1007.74
2018-01-27T02:51:04.768Z,1007.76
2018-01-27T02:52:14.802Z,1007.82
2018-01-27T02:53:24.848Z,1007.8
2018-01-27T02:54:34.893Z,1007.8
2018-01-27T02:55:44.695Z,1007.83
2018-01-27T02:56:54.738Z,1007.85
2018-01-27T02:58:04.529Z,1007.86
2018-01-27T02:59:14.576Z,1007.84
2018-01-27T03:00:24.403Z,1007.88
2018-01-27T03:01:34.445Z,1007.85
2018-01-27T03:02:44.236Z,1007.87
2018-01-27T03:34:54.961Z,1008.43
2018-01-27T03:36:04.981Z,1008.42
2018-01-27T03:37:15.013Z,1008.39
2018-01-27T03:38:24.523Z,1008.43
2018-01-27T03:39:34.550Z,1008.45
2018-01-27T03:40:44.582Z,1008.46
2018-01-27T03:41:54.614Z,1008.44
2018-01-27T03:43:04.652Z,1008.48
2018-01-27T03:44:14.434Z,1008.47
2018-01-27T03:45:24.474Z,1008.46
2018-01-27T03:46:34.267Z,1008.51
2018-01-27T03:47:44.308Z,1008.49
2018-01-27T03:48:55.438Z,1008.51
2018-01-27T03:50:05.490Z,1008.55
2018-01-27T03:51:15.523Z,1008.56
2018-01-27T03:52:25.677Z,1008.56
2018-01-27T03:53:35.452Z,1008.57
2018-01-27T03:54:45.488Z,1008.61
2018-01-27T03:55:55.538Z,1008.64
2018-01-27T03:57:05.323Z,1008.63
2018-01-27T03:58:15.113Z,1008.63
2018-01-27T03:59:25.152Z,1008.66
2018-01-27T04:00:35.196Z,1008.6
2018-01-27T04:01:45.240Z,1008.67
2018-01-27T04:02:55.292Z,1008.64
2018-01-27T04:04:05.333Z,1008.69
2018-01-27T04:05:15.124Z,1008.69
2018-01-27T04:06:24.906Z,1008.69
2018-01-27T04:07:34.938Z,1008.71
2018-01-27T04:08:44.725Z,1008.68
2018-01-27T04:09:54.767Z,1008.64
2018-01-27T04:11:04.554Z,1008.71
2018-01-27T04:12:14.344Z,1008.74
2018-01-27T04:13:24.141Z,1008.73
2018-01-27T04:14:34.180Z,1008.72
2018-01-27T04:15:43.957Z,1008.72
2018-01-27T04:16:53.999Z,1008.73
2018-01-27T04:18:03.787Z,1008.76
2018-01-27T04:19:13.825Z,1008.77
2018-01-27T04:20:23.873Z,1008.75
2018-01-27T04:21:33.707Z,1008.8
2018-01-27T04:22:43.750Z,1008.82
2018-01-27T04:23:53.804Z,1008.8
2018-01-27T04:25:03.844Z,1008.88
2018-01-27T04:26:13.895Z,1008.9
2018-01-27T04:27:23.937Z,1008.93
2018-01-27T04:28:33.766Z,1008.93
2018-01-27T04:29:43.849Z,1008.9
2018-01-27T04:30:53.947Z,1008.94
2018-01-27T04:32:03.986Z,1008.96
2018-01-27T04:33:13.777Z,1008.97
2018-01-27T04:34:23.572Z,1008.95
2018-01-27T04:35:33.627Z,1008.98
2018-01-27T04:36:43.666Z,1009
2018-01-27T04:37:53.453Z,1008.99
2018-01-27T04:39:03.023Z,1009.03
2018-01-27T04:40:12.793Z,1008.98
2018-01-27T04:41:22.854Z,1008.92
2018-01-27T04:42:32.650Z,1008.93
2018-01-27T04:43:42.772Z,1008.94
2018-01-27T04:44:52.839Z,1008.95
2018-01-27T04:46:02.892Z,1008.94
2018-01-27T04:47:12.933Z,1009
2018-01-27T04:48:22.976Z,1009.02
2018-01-27T04:49:32.750Z,1009.02
2018-01-27T04:50:42.811Z,1009.01
2018-01-27T04:51:52.601Z,1008.99
2018-01-27T04:53:02.625Z,1009
2018-01-27T04:54:12.663Z,1008.99
2018-01-27T04:55:22.719Z,1009
2018-01-27T04:56:32.506Z,1008.96
2018-01-27T04:57:42.292Z,1009.05
2018-01-27T04:58:52.341Z,1009.08
2018-01-27T05:00:02.128Z,1009.1
2018-01-27T05:01:12.174Z,1009.12
2018-01-27T05:02:22.360Z,1009.12
2018-01-27T05:03:32.391Z,1009.15
2018-01-27T05:04:42.435Z,1009.17
2018-01-27T05:05:52.494Z,1009.15
2018-01-27T05:07:03.875Z,1009.17
2018-01-27T05:08:13.670Z,1009.21
2018-01-27T05:09:23.475Z,1009.24
2018-01-27T05:10:33.509Z,1009.22
2018-01-27T05:11:43.540Z,1009.26
2018-01-27T05:12:53.636Z,1009.27
2018-01-27T05:14:02.962Z,1009.27
2018-01-27T05:15:13.116Z,1009.29
2018-01-27T05:16:23.156Z,1009.29
2018-01-27T05:17:33.193Z,1009.29
2018-01-27T05:18:43.031Z,1009.31
2018-01-27T05:19:53.081Z,1009.27
2018-01-27T05:21:03.136Z,1009.33
2018-01-27T05:22:13.190Z,1009.32
2018-01-27T05:23:23.229Z,1009.31
2018-01-27T05:24:33.258Z,1009.33
2018-01-27T05:25:43.299Z,1009.37
2018-01-27T05:26:53.086Z,1009.39
2018-01-27T05:28:03.144Z,1009.47
2018-01-27T05:29:13.200Z,1009.45
2018-01-27T05:30:23.260Z,1009.51
2018-01-27T05:31:33.106Z,1009.51
2018-01-27T05:32:43.149Z,1009.62
2018-01-27T05:33:52.936Z,1009.57
2018-01-27T05:35:02.970Z,1009.58
2018-01-27T05:36:12.745Z,1009.58
2018-01-27T05:37:22.837Z,1009.62
2018-01-27T05:38:32.889Z,1009.64
2018-01-27T05:39:42.424Z,1009.64
2018-01-27T05:40:52.239Z,1009.7
2018-01-27T05:42:02.022Z,1009.71
2018-01-27T05:43:12.067Z,1009.72
2018-01-27T05:44:22.108Z,1009.71
2018-01-27T05:45:32.166Z,1009.75
2018-01-27T05:46:42.207Z,1009.76
2018-01-27T05:47:52.260Z,1009.79
2018-01-27T05:49:02.355Z,1009.8
2018-01-27T05:50:12.413Z,1009.81
2018-01-27T05:51:22.480Z,1009.78
2018-01-27T05:52:32.511Z,1009.83
2018-01-27T05:53:42.558Z,1009.83
2018-01-27T05:54:52.625Z,1009.86
2018-01-27T05:56:02.665Z,1009.85
2018-01-27T05:57:12.713Z,1009.9
2018-01-27T05:58:22.514Z,1009.91
2018-01-27T05:59:32.305Z,1009.94
2018-01-27T06:00:42.352Z,1009.93
2018-01-27T06:01:52.408Z,1010
2018-01-27T06:03:02.445Z,1010.01
2018-01-27T06:04:12.502Z,1010.04
2018-01-27T06:05:22.290Z,1010.05
2018-01-27T06:06:32.335Z,1010.09
2018-01-27T06:07:42.383Z,1010.09
2018-01-27T06:08:52.429Z,1010.16
2018-01-27T06:10:01.959Z,1010.11
2018-01-27T06:11:11.808Z,1010.17
2018-01-27T06:12:21.842Z,1010.16
2018-01-27T06:13:31.900Z,1010.18
2018-01-27T06:14:41.949Z,1010.14
2018-01-27T06:15:52.007Z,1010.19
2018-01-27T06:17:02.069Z,1010.21
2018-01-27T06:18:13.075Z,1010.18
2018-01-27T06:19:22.913Z,1010.21
2018-01-27T06:20:32.959Z,1010.23
2018-01-27T06:21:43.002Z,1010.22
2018-01-27T06:22:53.037Z,1010.25
2018-01-27T06:24:02.867Z,1010.33
2018-01-27T06:25:12.924Z,1010.37
2018-01-27T06:26:22.968Z,1010.34
2018-01-27T06:27:32.488Z,1010.37
2018-01-27T06:28:42.519Z,1010.43
2018-01-27T06:29:52.627Z,1010.42
2018-01-27T06:31:02.670Z,1010.42
2018-01-27T06:32:12.714Z,1010.43
2018-01-27T06:33:22.736Z,1010.4
2018-01-27T06:34:32.533Z,1010.39
2018-01-27T06:35:42.612Z,1010.37
2018-01-27T06:36:52.669Z,1010.38
2018-01-27T06:38:02.185Z,1010.4
2018-01-27T06:39:12.247Z,1010.44
2018-01-27T06:40:22.037Z,1010.47
2018-01-27T06:41:32.089Z,1010.52
2018-01-27T06:42:41.609Z,1010.52
2018-01-27T06:43:51.657Z,1010.58
2018-01-27T06:45:01.722Z,1010.59
2018-01-27T06:46:11.776Z,1010.61
2018-01-27T06:47:21.893Z,1010.65
2018-01-27T06:48:31.999Z,1010.68
2018-01-27T06:49:42.060Z,1010.61
2018-01-27T06:50:52.113Z,1010.69
2018-01-27T06:52:01.656Z,1010.69
2018-01-27T06:53:11.190Z,1010.72
2018-01-27T06:54:21.250Z,1010.76
2018-01-27T06:55:31.305Z,1010.7
2018-01-27T06:56:41.341Z,1010.78
2018-01-27T06:57:51.730Z,1010.83
2018-01-27T06:59:01.780Z,1010.86
2018-01-27T07:00:11.820Z,1010.85
2018-01-27T07:01:21.603Z,1010.93
2018-01-27T07:02:31.391Z,1010.93
2018-01-27T07:03:41.416Z,1010.97
2018-01-27T07:04:51.508Z,1010.98
2018-01-27T07:06:01.540Z,1010.97
2018-01-27T07:07:10.822Z,1011
2018-01-27T07:08:20.873Z,1011.01
2018-01-27T07:09:30.380Z,1011.02
2018-01-27T07:10:40.219Z,1011.06
2018-01-27T07:11:50.266Z,1011.09
2018-01-27T07:13:00.296Z,1011.09
2018-01-27T07:14:10.088Z,1011.05
2018-01-27T07:15:19.883Z,1011.07
2018-01-27T07:16:29.668Z,1011.07
2018-01-27T07:17:39.715Z,1011.12
2018-01-27T07:18:49.765Z,1011.11
2018-01-27T07:19:59.816Z,1011.16
2018-01-27T07:21:09.865Z,1011.17
2018-01-27T07:22:19.712Z,1011.2
2018-01-27T07:23:29.495Z,1011.19
2018-01-27T07:24:39.571Z,1011.21
2018-01-27T07:25:49.352Z,1011.22
2018-01-27T07:26:58.894Z,1011.2
2018-01-27T07:28:08.789Z,1011.21
2018-01-27T07:29:18.331Z,1011.21
2018-01-27T07:30:28.377Z,1011.23
2018-01-27T07:31:38.158Z,1011.3
2018-01-27T07:32:47.932Z,1011.26
2018-01-27T07:33:57.987Z,1011.29
2018-01-27T07:35:08.025Z,1011.28
2018-01-27T07:36:17.564Z,1011.29
2018-01-27T07:37:27.383Z,1011.27
2018-01-27T07:38:37.175Z,1011.22
2018-01-27T07:39:46.936Z,1011.21
2018-01-27T07:40:56.732Z,1011.24
2018-01-27T07:42:06.510Z,1011.23
2018-01-27T07:43:16.560Z,1011.25
2018-01-27T07:44:26.365Z,1011.23
2018-01-27T07:45:36.404Z,1011.28
2018-01-27T07:46:46.505Z,1011.31
2018-01-27T07:47:56.027Z,1011.3
2018-01-27T07:49:06.081Z,1011.29
2018-01-27T07:50:16.132Z,1011.32
2018-01-27T07:51:26.166Z,1011.33
2018-01-27T07:52:36.229Z,1011.32
2018-01-27T07:53:45.752Z,1011.34
2018-01-27T07:54:55.817Z,1011.37
2018-01-27T07:56:05.914Z,1011.32
2018-01-27T07:57:15.717Z,1011.38
2018-01-27T07:58:25.759Z,1011.41
2018-01-27T07:59:35.824Z,1011.39
2018-01-27T08:00:45.872Z,1011.45
2018-01-27T08:01:55.687Z,1011.47
2018-01-27T08:03:05.742Z,1011.5
2018-01-27T08:04:15.793Z,1011.53
2018-01-27T08:05:25.585Z,1011.51
2018-01-27T08:06:35.391Z,1011.56
2018-01-27T08:07:45.437Z,1011.56
2018-01-27T08:08:55.494Z,1011.53
2018-01-27T08:10:05.276Z,1011.58
2018-01-27T08:11:15.861Z,1011.62
2018-01-27T08:12:25.379Z,1011.6
2018-01-27T08:13:35.428Z,1011.65
2018-01-27T08:14:45.478Z,1011.68
2018-01-27T08:15:55.266Z,1011.68
2018-01-27T08:17:06.127Z,1011.65
2018-01-27T08:18:16.173Z,1011.71
2018-01-27T08:19:25.702Z,1011.71
2018-01-27T08:20:35.766Z,1011.76
2018-01-27T08:21:45.826Z,1011.72
2018-01-27T08:22:55.880Z,1011.71
2018-01-27T08:24:05.983Z,1011.71
2018-01-27T08:25:15.767Z,1011.79
2018-01-27T08:26:25.840Z,1011.75
2018-01-27T08:27:35.879Z,1011.79
2018-01-27T08:28:45.673Z,1011.8
2018-01-27T08:29:55.464Z,1011.83
2018-01-27T08:31:05.581Z,1011.88
2018-01-27T08:32:15.635Z,1011.85
2018-01-27T08:33:25.697Z,1011.84
2018-01-27T08:34:35.482Z,1011.9
2018-01-27T08:35:45.285Z,1011.87
2018-01-27T08:36:55.119Z,1011.86
2018-01-27T08:38:05.165Z,1011.88
2018-01-27T08:39:15.204Z,1011.91
2018-01-27T08:40:25.247Z,1011.95
2018-01-27T08:41:35.310Z,1011.95
2018-01-27T08:42:45.376Z,1012.03
2018-01-27T08:43:55.194Z,1012.04
2018-01-27T08:45:05.233Z,1012
2018-01-27T08:46:15.073Z,1012.01
2018-01-27T08:47:25.238Z,1012
2018-01-27T08:48:35.018Z,1012.05
2018-01-27T08:49:45.066Z,1012.07
2018-01-27T08:50:55.412Z,1012.11
2018-01-27T08:52:05.496Z,1012.06
2018-01-27T08:53:15.530Z,1012.11
2018-01-27T08:54:25.334Z,1012.12
2018-01-27T08:55:35.395Z,1012.1
2018-01-27T08:56:45.437Z,1012.14
2018-01-27T08:57:55.548Z,1012.13
2018-01-27T08:59:05.604Z,1012.14
2018-01-27T09:00:15.716Z,1012.08
2018-01-27T09:01:25.780Z,1012.11
2018-01-27T09:02:35.845Z,1012.1
2018-01-27T09:03:45.910Z,1012.13
2018-01-27T09:04:55.441Z,1012.12
2018-01-27T09:06:04.974Z,1012.12
2018-01-27T09:07:15.029Z,1012.13
2018-01-27T09:08:25.084Z,1012.13
2018-01-27T09:09:35.145Z,1012.2
2018-01-27T09:10:45.184Z,1012.17
2018-01-27T09:11:55.224Z,1012.16
2018-01-27T09:13:05.284Z,1012.2
2018-01-27T09:14:15.352Z,1012.22
2018-01-27T09:15:25.422Z,1012.25
2018-01-27T09:16:35.197Z,1012.27
2018-01-27T09:17:44.723Z,1012.32
2018-01-27T09:18:54.785Z,1012.35
2018-01-27T09:20:04.838Z,1012.35
2018-01-27T09:21:14.658Z,1012.36
2018-01-27T09:22:24.701Z,1012.32
2018-01-27T09:23:34.804Z,1012.38
2018-01-27T09:24:44.847Z,1012.41
2018-01-27T09:25:54.648Z,1012.41
2018-01-27T09:27:04.708Z,1012.43
2018-01-27T09:28:14.779Z,1012.43
2018-01-27T09:29:24.869Z,1012.42
2018-01-27T09:30:34.932Z,1012.34
2018-01-27T09:31:45.017Z,1012.38
2018-01-27T09:32:54.894Z,1012.42
2018-01-27T09:34:04.928Z,1012.45
2018-01-27T09:35:14.720Z,1012.49
2018-01-27T09:36:24.768Z,1012.54
2018-01-27T09:37:34.558Z,1012.61
2018-01-27T09:38:44.634Z,1012.64
2018-01-27T09:39:54.687Z,1012.6
2018-01-27T09:41:04.745Z,1012.65
2018-01-27T09:42:14.804Z,1012.65
2018-01-27T09:43:24.880Z,1012.66
2018-01-27T09:44:34.938Z,1012.69
2018-01-27T09:45:45.000Z,1012.72
2018-01-27T09:46:55.076Z,1012.71
2018-01-27T09:48:05.122Z,1012.68
2018-01-27T09:49:15.173Z,1012.72
2018-01-27T09:50:24.990Z,1012.75
2018-01-27T09:51:34.825Z,1012.79
2018-01-27T09:52:45.909Z,1012.78
2018-01-27T09:53:55.976Z,1012.81
2018-01-27T09:55:06.016Z,1012.76
2018-01-27T09:56:16.108Z,1012.77
2018-01-27T09:57:26.181Z,1012.76
2018-01-27T09:58:37.591Z,1012.72
2018-01-27T09:59:47.681Z,1012.77
2018-01-27T10:00:57.464Z,1012.77
2018-01-27T10:02:07.509Z,1012.8
2018-01-27T10:03:17.577Z,1012.85
2018-01-27T10:04:27.680Z,1012.84
2018-01-27T10:05:37.478Z,1012.9
2018-01-27T10:06:47.575Z,1012.91
2018-01-27T10:14:54.349Z,1012.83
2018-01-27T10:16:04.558Z,1012.84
2018-01-27T10:17:14.499Z,1012.85
2018-01-27T10:18:24.300Z,1012.85
2018-01-27T10:19:34.353Z,1012.86
2018-01-27T10:20:44.404Z,1012.85
2018-01-27T10:21:54.486Z,1012.87
2018-01-27T10:23:05.447Z,1012.81
2018-01-27T10:24:15.495Z,1012.82
2018-01-27T10:25:25.530Z,1012.83
2018-01-27T10:26:35.603Z,1012.84
2018-01-27T10:27:45.651Z,1012.86
2018-01-27T10:28:55.771Z,1012.85
2018-01-27T10:30:05.898Z,1012.89
2018-01-27T10:31:15.964Z,1012.93
2018-01-27T10:32:25.768Z,1012.92
2018-01-27T10:33:35.837Z,1012.88
2018-01-27T10:34:45.887Z,1012.89
2018-01-27T10:35:56.004Z,1012.85
2018-01-27T10:37:05.848Z,1012.89
2018-01-27T10:38:15.957Z,1012.84
2018-01-27T10:39:26.023Z,1012.84
2018-01-27T10:40:36.104Z,1012.84
2018-01-27T10:41:45.642Z,1012.79
2018-01-27T10:42:55.718Z,1012.83
2018-01-27T10:44:05.766Z,1012.81
2018-01-27T10:45:15.574Z,1012.78
2018-01-27T10:46:26.645Z,1012.77
2018-01-27T10:47:37.426Z,1012.82
2018-01-27T10:48:47.546Z,1012.78
2018-01-27T10:49:58.256Z,1012.83
2018-01-27T10:51:09.154Z,1012.84
2018-01-27T10:52:19.211Z,1012.86
2018-01-27T10:53:29.042Z,1012.84
2018-01-27T10:54:38.858Z,1012.84
2018-01-27T10:55:48.913Z,1012.87
2018-01-27T10:56:58.956Z,1012.84
2018-01-27T10:58:08.763Z,1012.85
2018-01-27T10:59:18.846Z,1012.87
2018-01-27T11:00:28.644Z,1012.9
2018-01-27T11:01:38.710Z,1012.87
2018-01-27T11:02:48.507Z,1012.86
2018-01-27T11:03:58.295Z,1012.88
2018-01-27T11:05:08.365Z,1012.97
2018-01-27T11:06:18.503Z,1012.9
2018-01-27T11:07:28.344Z,1012.89
2018-01-27T11:08:38.406Z,1012.94
2018-01-27T11:09:48.222Z,1012.96
2018-01-27T11:10:58.281Z,1012.95
2018-01-27T11:12:08.387Z,1012.99
2018-01-27T11:13:18.432Z,1012.96
2018-01-27T11:14:29.540Z,1012.98
2018-01-27T11:15:39.919Z,1013
2018-01-27T11:16:49.961Z,1013.04
2018-01-27T11:18:00.025Z,1013.05
2018-01-27T11:19:09.886Z,1013.08
2018-01-27T11:20:19.986Z,1013.04
2018-01-27T11:21:30.045Z,1013.06
2018-01-27T11:22:39.877Z,1013.06
2018-01-27T11:23:49.986Z,1013.07
2018-01-27T11:25:00.101Z,1013.06
2018-01-27T11:26:10.216Z,1013.09
2018-01-27T11:27:20.296Z,1013.13
2018-01-27T11:28:30.468Z,1013.1
2018-01-27T11:29:40.638Z,1013.14
2018-01-27T11:30:50.477Z,1013.12
2018-01-27T11:32:00.552Z,1013.2
2018-01-27T11:33:10.661Z,1013.22
2018-01-27T11:34:20.749Z,1013.22
2018-01-27T11:35:30.812Z,1013.2
2018-01-27T11:36:40.867Z,1013.21
2018-01-27T11:37:50.657Z,1013.24
2018-01-27T11:39:00.448Z,1013.2
2018-01-27T11:40:10.528Z,1013.17
2018-01-27T11:41:20.668Z,1013.26
2018-01-27T11:42:30.467Z,1013.23
2018-01-27T11:43:40.581Z,1013.22
2018-01-27T11:44:51.738Z,1013.22
2018-01-27T11:46:01.807Z,1013.25
2018-01-27T11:47:11.608Z,1013.24
2018-01-27T11:48:21.673Z,1013.23
2018-01-27T11:49:31.746Z,1013.22
2018-01-27T11:50:41.544Z,1013.23
2018-01-27T11:51:52.499Z,1013.26
2018-01-27T11:53:03.917Z,1013.26
2018-01-27T11:54:14.007Z,1013.26
2018-01-27T11:55:24.080Z,1013.26
2018-01-27T11:56:34.159Z,1013.28
2018-01-27T11:57:43.950Z,1013.29
2018-01-27T11:58:53.822Z,1013.28
2018-01-27T12:00:03.901Z,1013.33
2018-01-27T12:01:13.989Z,1013.3
2018-01-27T12:02:24.052Z,1013.3
2018-01-27T12:03:33.851Z,1013.29
2018-01-27T12:04:43.959Z,1013.39
2018-01-27T12:05:54.034Z,1013.28
2018-01-27T12:07:03.605Z,1013.31
2018-01-27T12:08:13.665Z,1013.3
2018-01-27T12:09:24.791Z,1013.28
2018-01-27T12:10:34.878Z,1013.21
2018-01-27T12:11:44.956Z,1013.22
2018-01-27T12:12:55.016Z,1013.21
2018-01-27T12:14:05.074Z,1013.27
2018-01-27T12:15:15.157Z,1013.21
2018-01-27T12:16:25.527Z,1013.21
2018-01-27T12:17:35.671Z,1013.24
2018-01-27T12:18:45.736Z,1013.25
2018-01-27T12:19:55.809Z,1013.23
2018-01-27T12:21:05.910Z,1013.27
2018-01-27T12:22:15.959Z,1013.25
2018-01-27T12:23:26.022Z,1013.25
2018-01-27T12:24:36.081Z,1013.28
2018-01-27T12:25:45.943Z,1013.3
2018-01-27T12:26:57.364Z,1013.25
2018-01-27T12:28:07.426Z,1013.26
2018-01-27T12:29:17.463Z,1013.25
2018-01-27T12:30:27.279Z,1013.22
2018-01-27T12:31:37.324Z,1013.26
2018-01-27T12:32:47.370Z,1013.29
2018-01-27T12:33:57.450Z,1013.28
2018-01-27T12:35:07.520Z,1013.28
2018-01-27T12:36:17.598Z,1013.24
2018-01-27T12:37:27.750Z,1013.24
2018-01-27T12:38:37.809Z,1013.2
2018-01-27T12:39:47.894Z,1013.32
2018-01-27T12:40:57.953Z,1013.3
2018-01-27T12:42:08.066Z,1013.29
2018-01-27T12:43:18.766Z,1013.26
2018-01-27T12:44:29.045Z,1013.21
2018-01-27T12:45:39.125Z,1013.25
2018-01-27T12:46:49.181Z,1013.2
2018-01-27T12:47:59.251Z,1013.15
2018-01-27T12:49:09.100Z,1013.1
2018-01-27T12:50:19.171Z,1013.13
2018-01-27T12:51:29.288Z,1013.18
2018-01-27T12:52:39.380Z,1013.14
2018-01-27T12:53:49.189Z,1013.2
2018-01-27T12:54:59.306Z,1013.15
2018-01-27T12:56:09.133Z,1013.22
2018-01-27T12:57:18.948Z,1013.19
2018-01-27T12:58:30.522Z,1013.18
2018-01-27T12:59:40.597Z,1013.16
2018-01-27T13:00:50.708Z,1013.18
2018-01-27T13:02:00.525Z,1013.12
2018-01-27T13:03:10.613Z,1013.08
2018-01-27T13:04:20.929Z,1013.13
2018-01-27T13:05:31.025Z,1013.15
2018-01-27T13:06:41.325Z,1013.14
2018-01-27T13:07:51.475Z,1013.17
2018-01-27T13:09:01.529Z,1013.13
2018-01-27T13:10:11.333Z,1013.14
2018-01-27T13:11:21.911Z,1013.1
2018-01-27T13:12:32.055Z,1013.12
2018-01-27T13:13:42.309Z,1013.16
2018-01-27T13:14:52.198Z,1013.16
2018-01-27T13:16:02.271Z,1013.19
2018-01-27T13:17:13.109Z,1013.15
2018-01-27T13:18:24.371Z,1013.2
2018-01-27T13:19:35.428Z,1013.15
2018-01-27T13:20:45.487Z,1013.19
2018-01-27T13:21:55.556Z,1013.17
2018-01-27T13:23:05.628Z,1013.21
2018-01-27T13:24:16.099Z,1013.2
2018-01-27T13:25:26.168Z,1013.2
2018-01-27T13:26:36.243Z,1013.22
2018-01-27T13:27:46.885Z,1013.18
2018-01-27T13:28:56.980Z,1013.23
2018-01-27T13:30:08.203Z,1013.25
2018-01-27T13:31:18.026Z,1013.29
2018-01-27T13:32:28.100Z,1013.23
2018-01-27T13:33:39.292Z,1013.29
2018-01-27T13:34:49.354Z,1013.31
2018-01-27T13:35:59.432Z,1013.32
2018-01-27T13:37:09.522Z,1013.35
2018-01-27T13:38:19.332Z,1013.35
2018-01-27T13:39:31.133Z,1013.37
2018-01-27T13:40:42.022Z,1013.33
2018-01-27T13:41:52.209Z,1013.31
2018-01-27T13:43:02.279Z,1013.28
2018-01-27T13:44:11.788Z,1013.29
2018-01-27T13:45:21.954Z,1013.3
2018-01-27T13:46:33.216Z,1013.36
2018-01-27T13:47:44.533Z,1013.29
2018-01-27T13:48:54.590Z,1013.32
2018-01-27T13:50:04.387Z,1013.29
2018-01-27T13:51:14.446Z,1013.32
2018-01-27T13:52:26.276Z,1013.36
2018-01-27T13:53:36.500Z,1013.37
2018-01-27T13:54:46.562Z,1013.4
2018-01-27T13:55:57.727Z,1013.39
2018-01-27T13:57:07.798Z,1013.42
2018-01-27T13:58:17.648Z,1013.42
2018-01-27T13:59:27.747Z,1013.41
2018-01-27T14:00:37.843Z,1013.45
2018-01-27T14:01:47.928Z,1013.46
2018-01-27T14:02:58.619Z,1013.46
2018-01-27T14:04:08.418Z,1013.45
2018-01-27T14:05:18.563Z,1013.49
2018-01-27T14:06:28.628Z,1013.47
2018-01-27T14:07:38.671Z,1013.44
2018-01-27T14:08:48.789Z,1013.5
2018-01-27T14:09:58.600Z,1013.5
2018-01-27T14:11:08.694Z,1013.47
2018-01-27T14:12:18.786Z,1013.45
2018-01-27T14:13:28.894Z,1013.51
2018-01-27T14:14:38.760Z,1013.52
2018-01-27T14:15:48.904Z,1013.49
2018-01-27T14:16:59.038Z,1013.52
2018-01-27T14:18:09.128Z,1013.54
2018-01-27T14:19:18.949Z,1013.57
2018-01-27T14:20:28.992Z,1013.59
2018-01-27T14:21:38.783Z,1013.61
2018-01-27T14:22:48.969Z,1013.64
2018-01-27T14:23:59.020Z,1013.63
2018-01-27T14:25:09.096Z,1013.65
2018-01-27T14:26:19.174Z,1013.69
2018-01-27T14:27:29.232Z,1013.69
2018-01-27T14:28:39.326Z,1013.65
2018-01-27T14:29:49.393Z,1013.63
2018-01-27T14:30:59.470Z,1013.61
2018-01-27T14:32:09.527Z,1013.6
2018-01-27T14:33:19.582Z,1013.69
2018-01-27T14:34:29.654Z,1013.75
2018-01-27T14:35:39.767Z,1013.74
2018-01-27T14:36:49.329Z,1013.8
2018-01-27T14:37:59.417Z,1013.75
2018-01-27T14:39:09.457Z,1013.79
2018-01-27T14:40:19.300Z,1013.78
2018-01-27T14:41:29.386Z,1013.8
2018-01-27T14:42:38.951Z,1013.82
2018-01-27T14:43:49.010Z,1013.83
2018-01-27T14:44:58.818Z,1013.77
2018-01-27T14:46:08.930Z,1013.75
2018-01-27T14:47:19.015Z,1013.82
2018-01-27T14:48:28.845Z,1013.79